createdAt,value
2018-07-03T00:00:53.964Z,101004.66
2018-07-03T00:03:24.170Z,101004.66
2018-07-03T00:05:53.322Z,101001.42
2018-07-03T00:08:22.643Z,101003.80
2018-07-03T00:10:51.975Z,100998.88
2018-07-03T00:13:21.076Z,100999.74
2018-07-03T00:15:50.157Z,100991.64
2018-07-03T00:18:19.261Z,100988.56
2018-07-03T00:20:48.477Z,100987.70
2018-07-03T00:23:17.667Z,100996.18
2018-07-03T00:25:46.723Z,100995.32
2018-07-03T00:28:15.967Z,100990.91
2018-07-03T00:30:45.582Z,100990.91
2018-07-03T00:33:14.721Z,100984.67
2018-07-03T00:35:43.728Z,100991.92
2018-07-03T00:38:12.756Z,100991.06
2018-07-03T00:40:41.803Z,100994.62
2018-07-03T00:43:10.965Z,100984.80
2018-07-03T00:45:40.030Z,100982.09
2018-07-03T00:48:09.037Z,100986.64
2018-07-03T00:50:37.952Z,100979.06
2018-07-03T00:53:06.987Z,100980.41
2018-07-03T00:55:36.103Z,100973.29
2018-07-03T00:58:05.298Z,100973.78
2018-07-03T01:00:35.327Z,100979.19
2018-07-03T01:03:05.007Z,100978.33
2018-07-03T01:05:34.241Z,100978.00
2018-07-03T01:08:03.048Z,100971.24
2018-07-03T01:10:32.343Z,100972.72
2018-07-03T01:13:01.666Z,100970.38
2018-07-03T01:15:30.637Z,100973.24
2018-07-03T01:17:59.476Z,100975.09
2018-07-03T01:20:28.638Z,100972.38
2018-07-03T01:22:57.814Z,100960.23
2018-07-03T01:25:26.880Z,100958.52
2018-07-03T01:27:56.126Z,100950.90
2018-07-03T01:30:25.106Z,100952.25
2018-07-03T01:32:54.019Z,100960.02
2018-07-03T01:35:22.904Z,100964.56
2018-07-03T01:37:51.974Z,100967.75
2018-07-03T01:40:21.655Z,100971.81
2018-07-03T01:42:50.745Z,100968.61
2018-07-03T01:45:19.898Z,100974.02
2018-07-03T01:47:48.878Z,100967.27
2018-07-03T01:50:17.891Z,100961.86
2018-07-03T01:52:46.773Z,100961.38
2018-07-03T01:55:15.849Z,100959.66
2018-07-03T01:57:44.867Z,100959.66
2018-07-03T02:00:13.978Z,100956.95
2018-07-03T02:02:43.085Z,100959.66
2018-07-03T02:05:12.109Z,100963.21
2018-07-03T02:07:40.897Z,100957.81
2018-07-03T02:10:09.932Z,100956.62
2018-07-03T02:12:38.672Z,100949.70
2018-07-03T02:15:07.398Z,100955.11
2018-07-03T02:17:36.118Z,100952.04
2018-07-03T02:20:05.099Z,100943.94
2018-07-03T02:22:34.106Z,100945.81
2018-07-03T02:25:03.042Z,100941.23
2018-07-03T02:27:32.179Z,100939.89
2018-07-03T02:30:01.079Z,100932.64
2018-07-03T02:32:30.081Z,100931.30
2018-07-03T02:34:59.181Z,100929.94
2018-07-03T02:37:28.267Z,100930.95
2018-07-03T02:39:57.303Z,100924.20
2018-07-03T02:42:26.343Z,100928.25
2018-07-03T02:44:55.320Z,100926.02
2018-07-03T02:47:24.511Z,100924.79
2018-07-03T02:49:53.286Z,100921.11
2018-07-03T02:52:22.228Z,100920.73
2018-07-03T02:54:51.295Z,100923.93
2018-07-03T02:57:20.282Z,100923.11
2018-07-03T02:59:49.404Z,100919.88
2018-07-03T03:02:18.499Z,100914.14
2018-07-03T03:04:47.513Z,100918.53
2018-07-03T03:07:16.550Z,100915.00
2018-07-03T03:09:45.601Z,100915.98
2018-07-03T03:12:14.649Z,100928.14
2018-07-03T03:14:43.675Z,100919.18
2018-07-03T03:17:12.676Z,100919.67
2018-07-03T03:19:41.874Z,100918.32
2018-07-03T03:22:10.822Z,100921.55
2018-07-03T03:24:39.990Z,100928.42
2018-07-03T03:27:09.524Z,100924.38
2018-07-03T03:29:39.251Z,100924.73
2018-07-03T03:32:08.165Z,100925.72
2018-07-03T03:34:37.181Z,100929.28
2018-07-03T03:37:06.313Z,100926.22
2018-07-03T03:39:35.525Z,100919.99
2018-07-03T03:42:04.383Z,100919.83
2018-07-03T03:44:33.672Z,100922.17
2018-07-03T03:47:02.747Z,100929.45
2018-07-03T03:49:31.653Z,100934.84
2018-07-03T03:52:00.747Z,100935.83
2018-07-03T03:54:29.693Z,100928.09
2018-07-03T03:56:58.763Z,100931.28
2018-07-03T03:59:27.703Z,100932.14
2018-07-03T04:01:56.725Z,100933.13
2018-07-03T04:04:25.640Z,100936.19
2018-07-03T04:06:54.845Z,100922.81
2018-07-03T04:09:23.918Z,100928.92
2018-07-03T04:11:52.981Z,100923.52
2018-07-03T04:14:22.162Z,100922.17
2018-07-03T04:16:51.399Z,100921.34
2018-07-03T04:19:20.329Z,100924.38
2018-07-03T04:21:49.118Z,100920.69
2018-07-03T04:24:17.886Z,100922.90
2018-07-03T04:26:46.693Z,100913.94
2018-07-03T04:29:15.654Z,100910.59
2018-07-03T04:31:44.658Z,100906.05
2018-07-03T04:34:13.700Z,100905.55
2018-07-03T04:36:42.697Z,100905.88
2018-07-03T04:39:11.560Z,100902.69
2018-07-03T04:41:40.342Z,100904.41
2018-07-03T04:44:09.164Z,100896.80
2018-07-03T04:46:37.976Z,100903.05
2018-07-03T04:49:06.820Z,100901.25
2018-07-03T04:51:35.672Z,100901.45
2018-07-03T04:54:04.603Z,100898.23
2018-07-03T04:56:33.529Z,100898.95
2018-07-03T04:59:02.567Z,100900.64
2018-07-03T05:01:31.408Z,100896.09
2018-07-03T05:04:00.162Z,100892.05
2018-07-03T05:06:28.956Z,100893.39
2018-07-03T05:08:57.772Z,100892.90
2018-07-03T05:11:26.622Z,100889.70
2018-07-03T05:13:55.491Z,100886.64
2018-07-03T05:16:24.346Z,100888.36
2018-07-03T05:18:53.122Z,100883.78
2018-07-03T05:21:21.901Z,100885.98
2018-07-03T05:23:50.701Z,100882.42
2018-07-03T05:26:19.540Z,100885.13
2018-07-03T05:28:48.538Z,100886.48
2018-07-03T05:31:17.547Z,100892.25
2018-07-03T05:33:46.696Z,100891.88
2018-07-03T05:36:15.556Z,100891.88
2018-07-03T05:38:44.335Z,100894.09
2018-07-03T05:41:13.297Z,100895.31
2018-07-03T05:43:42.461Z,100891.26
2018-07-03T05:46:11.407Z,100899.86
2018-07-03T05:48:40.462Z,100904.77
2018-07-03T05:51:09.501Z,100896.30
2018-07-03T05:53:38.377Z,100886.84
2018-07-03T05:56:07.486Z,100896.14
2018-07-03T05:58:36.423Z,100892.25
2018-07-03T06:01:05.389Z,100896.30
2018-07-03T06:03:34.203Z,100890.53
2018-07-03T06:06:03.146Z,100892.73
2018-07-03T06:08:32.121Z,100885.13
2018-07-03T06:11:01.127Z,100882.42
2018-07-03T07:12:39.045Z,100905.39
2018-07-03T07:15:08.713Z,100904.30
2018-07-03T07:17:37.669Z,100897.63
2018-07-03T07:20:06.884Z,100901.24
2018-07-03T07:22:36.132Z,100899.61
2018-07-03T07:25:05.234Z,100902.52
2018-07-03T07:27:34.389Z,100896.62
2018-07-03T07:30:03.157Z,100903.91
2018-07-03T07:32:32.108Z,100904.77
2018-07-03T07:35:01.627Z,100909.03
2018-07-03T07:37:30.853Z,100900.44
2018-07-03T07:40:00.091Z,100902.97
2018-07-03T07:42:29.027Z,100901.13
2018-07-03T07:44:57.907Z,100901.13
2018-07-03T07:47:26.748Z,100904.53
2018-07-03T07:49:55.789Z,100901.34
2018-07-03T07:52:24.732Z,100900.84
2018-07-03T07:54:53.586Z,100898.14
2018-07-03T07:57:22.517Z,100902.59
2018-07-03T07:59:51.521Z,100894.49
2018-07-03T08:02:20.322Z,100901.08
2018-07-03T08:04:49.434Z,100901.94
2018-07-03T08:07:18.250Z,100893.34
2018-07-03T08:09:47.137Z,100896.38
2018-07-03T08:12:16.133Z,100885.08
2018-07-03T08:14:45.122Z,100885.58
2018-07-03T08:17:14.295Z,100882.38
2018-07-03T08:19:43.362Z,100884.09
2018-07-03T08:22:12.406Z,100884.59
2018-07-03T08:24:41.202Z,100883.24
2018-07-03T08:27:10.225Z,100888.97
2018-07-03T08:29:39.158Z,100881.40
2018-07-03T08:32:08.213Z,100879.52
2018-07-03T08:34:37.194Z,100873.50
2018-07-03T08:37:06.278Z,100872.64
2018-07-03T08:39:35.321Z,100869.94
2018-07-03T08:42:04.067Z,100866.22
2018-07-03T08:44:33.005Z,100869.78
2018-07-03T08:47:01.942Z,100874.33
2018-07-03T08:49:31.041Z,100876.53
2018-07-03T08:52:00.094Z,100878.73
2018-07-03T08:54:28.995Z,100868.30
2018-07-03T08:56:57.958Z,100875.05
2018-07-03T08:59:26.879Z,100873.70
2018-07-03T09:01:55.922Z,100873.70
2018-07-03T09:04:24.873Z,100877.59
2018-07-03T09:06:53.800Z,100878.94
2018-07-03T09:09:22.591Z,100874.40
2018-07-03T09:11:51.727Z,100873.05
2018-07-03T09:14:20.725Z,100869.33
2018-07-03T09:16:49.928Z,100864.78
2018-07-03T09:19:19.029Z,100858.52
2018-07-03T09:21:47.959Z,100853.48
2018-07-03T09:24:16.970Z,100859.74
2018-07-03T09:26:46.632Z,100861.95
2018-07-03T09:29:15.709Z,100855.69
2018-07-03T09:31:45.630Z,100859.74
2018-07-03T09:34:14.576Z,100861.09
2018-07-03T09:36:43.355Z,100862.44
2018-07-03T09:39:13.268Z,100859.25
2018-07-03T09:41:42.179Z,100857.90
2018-07-03T09:44:11.582Z,100858.88
2018-07-03T09:46:40.779Z,100864.29
2018-07-03T09:49:09.863Z,100859.25
2018-07-03T09:51:38.767Z,100858.52
2018-07-03T09:54:07.703Z,100862.44
2018-07-03T09:56:36.716Z,100869.20
2018-07-03T09:59:05.960Z,100869.69
2018-07-03T10:01:35.038Z,100867.35
2018-07-03T10:04:03.919Z,100871.53
2018-07-03T10:06:32.922Z,100866.63
2018-07-03T10:09:01.887Z,100870.19
2018-07-03T10:11:30.663Z,100863.09
2018-07-03T10:13:59.555Z,100866.13
2018-07-03T10:16:28.354Z,100865.27
2018-07-03T10:18:57.356Z,100870.68
2018-07-03T10:21:26.390Z,100866.98
2018-07-03T10:23:55.590Z,100871.53
2018-07-03T10:26:24.562Z,100865.27
2018-07-03T10:28:53.471Z,100865.64
2018-07-03T10:31:22.326Z,100862.08
2018-07-03T10:33:51.350Z,100850.37
2018-07-03T10:36:20.246Z,100855.33
2018-07-03T10:38:49.125Z,100861.59
2018-07-03T10:41:18.126Z,100864.29
2018-07-03T10:43:47.105Z,100874.11
2018-07-03T10:46:16.193Z,100862.94
2018-07-03T10:48:45.092Z,100859.38
2018-07-03T10:51:14.031Z,100858.52
2018-07-03T10:53:43.101Z,100861.75
2018-07-03T10:56:12.838Z,100862.57
2018-07-03T10:58:41.754Z,100865.80
2018-07-03T11:01:10.752Z,100864.45
2018-07-03T11:03:39.789Z,100870.68
2018-07-03T11:06:08.777Z,100867.97
2018-07-03T11:08:37.994Z,100860.39
2018-07-03T11:11:07.176Z,100857.70
2018-07-03T11:13:36.242Z,100857.70
2018-07-03T11:16:05.390Z,100854.47
2018-07-03T11:18:34.253Z,100852.30
2018-07-03T11:21:03.235Z,100843.33
2018-07-03T11:23:32.333Z,100844.68
2018-07-03T11:26:01.240Z,100844.52
2018-07-03T11:28:30.125Z,100836.91
2018-07-03T11:30:59.198Z,100831.50
2018-07-03T11:33:28.090Z,100838.26
2018-07-03T11:35:56.975Z,100838.26
2018-07-03T11:38:25.960Z,100835.92
2018-07-03T11:40:55.033Z,100841.81
2018-07-03T11:43:23.978Z,100827.45
2018-07-03T11:45:52.951Z,100835.06
2018-07-03T11:48:21.957Z,100836.41
2018-07-03T11:50:50.945Z,100842.67
2018-07-03T11:53:19.930Z,100840.96
2018-07-03T11:55:48.985Z,100848.08
2018-07-03T11:58:17.958Z,100854.34
2018-07-03T12:00:46.687Z,100846.73
2018-07-03T12:03:15.671Z,100847.58
2018-07-03T12:05:44.782Z,100844.39
2018-07-03T12:08:13.816Z,100848.44
2018-07-03T12:10:42.729Z,100844.72
2018-07-03T12:13:11.728Z,100849.80
2018-07-03T12:15:40.649Z,100846.59
2018-07-03T12:18:14.954Z,100852.00
2018-07-03T12:20:44.244Z,100850.98
2018-07-03T12:23:13.289Z,100851.47
2018-07-03T12:25:42.226Z,100853.69
2018-07-03T12:28:11.219Z,100846.59
2018-07-03T12:30:40.216Z,100852.83
2018-07-03T12:33:09.224Z,100854.54
2018-07-03T12:35:38.237Z,100848.28
2018-07-03T12:38:07.412Z,100851.34
2018-07-03T12:40:36.262Z,100850.48
2018-07-03T12:43:05.448Z,100850.48
2018-07-03T12:45:34.525Z,100850.98
2018-07-03T12:48:03.701Z,100846.44
2018-07-03T12:50:32.638Z,100842.38
2018-07-03T12:53:01.570Z,100836.61
2018-07-03T12:55:30.572Z,100837.97
2018-07-03T12:57:59.772Z,100833.42
2018-07-03T13:00:28.842Z,100831.58
2018-07-03T13:02:57.744Z,100823.11
2018-07-03T13:05:26.970Z,100812.66
2018-07-03T13:07:56.100Z,100810.13
2018-07-03T13:10:25.063Z,100802.35
2018-07-03T13:12:54.356Z,100809.10
2018-07-03T13:15:23.210Z,100805.91
2018-07-03T13:17:52.303Z,100794.73
2018-07-03T13:20:21.211Z,100804.56
2018-07-03T13:22:50.305Z,100797.80
2018-07-03T13:25:19.412Z,100797.80
2018-07-03T13:27:48.499Z,100794.24
2018-07-03T13:30:17.520Z,100792.41
2018-07-03T13:32:46.550Z,100797.31
2018-07-03T13:35:15.561Z,100791.55
2018-07-03T13:37:44.583Z,100792.04
2018-07-03T13:40:13.513Z,100791.55
2018-07-03T13:42:42.692Z,100798.30
2018-07-03T13:45:11.947Z,100791.21
2018-07-03T13:47:40.975Z,100784.45
2018-07-03T13:50:10.038Z,100789.34
2018-07-03T13:52:38.921Z,100788.52
2018-07-03T13:55:07.863Z,100785.28
2018-07-03T13:57:36.999Z,100792.89
2018-07-03T14:00:06.723Z,100787.98
2018-07-03T14:02:35.773Z,100789.34
2018-07-03T14:05:05.224Z,100788.52
2018-07-03T14:07:34.391Z,100781.89
2018-07-03T14:10:03.692Z,100788.52
2018-07-03T14:12:32.763Z,100778.69
2018-07-03T14:15:01.815Z,100777.70
2018-07-03T14:17:30.870Z,100773.78
2018-07-03T14:20:00.058Z,100774.64
2018-07-03T14:22:29.061Z,100776.84
2018-07-03T14:24:58.049Z,100770.59
2018-07-03T14:27:27.104Z,100772.30
2018-07-03T14:29:56.159Z,100770.95
2018-07-03T14:32:25.060Z,100778.53
2018-07-03T14:34:54.128Z,100776.35
2018-07-03T14:37:23.316Z,100777.70
2018-07-03T14:39:52.332Z,100777.18
2018-07-03T14:42:21.318Z,100767.23
2018-07-03T14:44:50.345Z,100772.14
2018-07-03T14:47:19.516Z,100771.28
2018-07-03T14:49:48.579Z,100775.33
2018-07-03T14:52:17.719Z,100775.70
2018-07-03T14:54:46.779Z,100770.30
2018-07-03T14:57:15.758Z,100764.89
2018-07-03T14:59:45.064Z,100763.53
2018-07-03T15:02:14.155Z,100757.64
2018-07-03T15:04:43.405Z,100760.34
2018-07-03T15:07:12.476Z,100758.83
2018-07-03T15:09:41.470Z,100753.92
2018-07-03T15:12:10.497Z,100764.73
2018-07-03T15:14:39.531Z,100757.48
2018-07-03T15:17:08.577Z,100755.63
2018-07-03T15:19:43.046Z,100754.28
2018-07-03T15:22:12.434Z,100746.17
2018-07-03T15:24:41.642Z,100747.53
2018-07-03T15:27:10.862Z,100743.80
2018-07-03T15:29:40.065Z,100746.50
2018-07-03T15:32:09.270Z,100748.71
2018-07-03T15:34:38.609Z,100747.53
2018-07-03T15:37:07.716Z,100748.38
2018-07-03T15:39:36.859Z,100747.03
2018-07-03T15:42:06.001Z,100742.98
2018-07-03T15:44:46.140Z,100751.91
2018-07-03T15:47:15.528Z,100744.82
2018-07-03T15:49:44.641Z,100742.13
2018-07-03T15:52:13.920Z,100738.07
2018-07-03T15:54:43.090Z,100742.13
2018-07-03T15:57:12.986Z,100735.50
2018-07-03T15:59:42.038Z,100736.72
2018-07-03T16:02:11.851Z,100740.41
2018-07-03T16:05:18.542Z,100740.08
2018-07-03T16:07:51.931Z,100733.82
2018-07-03T16:10:21.122Z,100735.66
2018-07-03T16:12:50.204Z,100725.84
2018-07-03T16:15:19.368Z,100730.76
2018-07-03T16:17:48.501Z,100727.20
2018-07-03T16:20:22.848Z,100737.67
2018-07-03T16:22:52.101Z,100728.71
2018-07-03T16:25:21.150Z,100743.08
2018-07-03T16:27:50.228Z,100733.26
2018-07-03T16:30:19.275Z,100731.41
2018-07-03T16:32:48.335Z,100723.31
2018-07-03T16:35:18.164Z,100718.89
2018-07-03T16:37:47.274Z,100725.16
2018-07-03T16:40:16.453Z,100723.97
2018-07-03T16:42:46.075Z,100727.00
2018-07-03T16:45:15.254Z,100725.16
2018-07-03T16:47:44.410Z,100721.10
2018-07-03T16:50:13.754Z,100717.55
2018-07-03T16:52:42.794Z,100723.31
2018-07-03T16:55:12.340Z,100713.00
2018-07-03T16:57:41.445Z,100710.66
2018-07-03T17:00:10.449Z,100707.59
2018-07-03T17:02:39.434Z,100698.99
2018-07-03T17:05:08.549Z,100697.15
2018-07-03T17:07:37.691Z,100697.15
2018-07-03T17:10:06.941Z,100696.12
2018-07-03T17:12:35.931Z,100694.45
2018-07-03T17:15:05.149Z,100699.69
2018-07-03T17:17:34.262Z,100698.00
2018-07-03T17:20:03.432Z,100687.53
2018-07-03T17:22:32.726Z,100675.86
2018-07-03T17:25:02.357Z,100687.03
2018-07-03T17:27:31.547Z,100677.22
2018-07-03T17:30:00.827Z,100681.13
2018-07-03T17:32:30.043Z,100678.93
2018-07-03T17:34:59.408Z,100678.44
2018-07-03T17:37:28.488Z,100673.03
2018-07-03T17:40:08.371Z,100671.19
2018-07-03T17:42:48.329Z,100672.53
2018-07-03T17:45:38.985Z,100662.72
2018-07-03T17:48:09.310Z,100665.42
2018-07-03T17:50:38.401Z,100661.86
2018-07-03T17:54:36.915Z,100657.48
2018-07-03T17:57:06.257Z,100651.52
2018-07-03T17:59:35.541Z,100653.86
2018-07-03T18:02:05.214Z,100658.77
2018-07-03T18:04:34.253Z,100664.67
2018-07-03T18:07:03.688Z,100660.98
2018-07-03T18:09:32.731Z,100659.62
2018-07-03T18:12:01.947Z,100656.43
2018-07-03T18:14:30.934Z,100657.25
2018-07-03T18:17:00.169Z,100654.06
2018-07-03T18:19:35.233Z,100658.61
2018-07-03T18:22:05.526Z,100652.38
2018-07-03T18:24:34.758Z,100655.91
2018-07-03T18:27:04.008Z,100657.25
2018-07-03T18:29:33.070Z,100653.20
2018-07-03T18:32:01.961Z,100656.43
2018-07-03T18:34:31.243Z,100653.37
2018-07-03T18:37:00.668Z,100653.37
2018-07-03T18:39:29.875Z,100648.82
2018-07-03T18:41:59.837Z,100648.45
2018-07-03T18:44:29.117Z,100651.16
2018-07-03T18:46:58.265Z,100651.16
2018-07-03T18:49:27.208Z,100656.23
2018-07-03T18:51:56.704Z,100652.19
2018-07-03T18:54:25.874Z,100656.37
2018-07-03T18:56:55.016Z,100661.64
2018-07-03T18:59:24.147Z,100651.46
2018-07-03T19:01:53.144Z,100658.22
2018-07-03T19:04:22.227Z,100655.52
2018-07-03T19:06:51.781Z,100656.37
2018-07-03T19:09:21.050Z,100660.91
2018-07-03T19:11:50.177Z,100657.03
2018-07-03T19:14:19.203Z,100661.45
2018-07-03T19:16:48.300Z,100661.45
2018-07-03T19:19:17.700Z,100660.09
2018-07-03T19:21:46.914Z,100657.88
2018-07-03T19:24:17.002Z,100657.88
2018-07-03T19:26:46.226Z,100658.74
2018-07-03T19:29:15.404Z,100660.59
2018-07-03T19:31:44.816Z,100666.84
2018-07-03T19:34:14.264Z,100661.58
2018-07-03T19:36:43.488Z,100670.04
2018-07-03T19:39:14.053Z,100660.59
2018-07-03T19:41:43.524Z,100664.64
2018-07-03T19:44:12.709Z,100661.08
2018-07-03T19:46:41.959Z,100664.14
2018-07-03T19:49:11.338Z,100668.20
2018-07-03T19:51:40.505Z,100666.98
2018-07-03T19:54:09.643Z,100668.69
2018-07-03T19:56:38.723Z,100673.73
2018-07-03T19:59:07.742Z,100675.08
2018-07-03T20:01:36.950Z,100675.08
2018-07-03T20:04:06.146Z,100667.47
2018-07-03T20:06:35.460Z,100672.38
2018-07-03T20:09:06.567Z,100675.08
2018-07-03T20:11:35.535Z,100675.25
2018-07-03T20:14:05.059Z,100671.52
2018-07-03T20:16:34.609Z,100678.80
2018-07-03T20:19:03.905Z,100679.30
2018-07-03T20:21:33.038Z,100681.14
2018-07-03T20:24:02.097Z,100685.19
2018-07-03T20:26:31.356Z,100689.74
2018-07-03T20:29:00.427Z,100681.30
2018-07-03T20:31:29.358Z,100678.61
2018-07-03T20:33:58.377Z,100688.55
2018-07-03T20:36:27.355Z,100683.16
2018-07-03T20:38:56.628Z,100680.95
2018-07-03T20:41:25.736Z,100681.44
2018-07-03T20:43:54.821Z,100683.81
2018-07-03T20:46:24.125Z,100676.17
2018-07-03T20:48:53.398Z,100677.52
2018-07-03T20:51:22.413Z,100679.36
2018-07-03T20:53:51.417Z,100678.02
2018-07-03T20:56:20.651Z,100680.84
2018-07-03T20:58:49.570Z,100676.30
2018-07-03T21:01:18.675Z,100680.02
2018-07-03T21:03:48.418Z,100671.92
2018-07-03T21:06:17.498Z,100677.45
2018-07-03T21:08:46.737Z,100682.36
2018-07-03T21:11:15.936Z,100683.72
2018-07-03T21:13:44.878Z,100674.92
2018-07-03T21:16:13.873Z,100678.48
2018-07-03T21:18:42.884Z,100671.36
2018-07-03T21:21:11.888Z,100679.47
2018-07-03T21:23:41.035Z,100673.20
2018-07-03T21:26:10.270Z,100671.53
2018-07-03T21:28:39.430Z,100675.91
2018-07-03T21:31:08.715Z,100673.20
2018-07-03T21:33:37.933Z,100666.95
2018-07-03T21:36:06.916Z,100673.86
2018-07-03T21:38:36.129Z,100673.38
2018-07-03T21:41:05.118Z,100679.62
2018-07-03T21:43:34.255Z,100677.42
2018-07-03T21:46:03.287Z,100675.58
2018-07-03T21:48:32.251Z,100673.38
2018-07-03T21:51:01.338Z,100674.72
2018-07-03T21:53:30.275Z,100671.86
2018-07-03T21:55:59.502Z,100669.32
2018-07-03T21:58:28.421Z,100673.86
2018-07-03T22:00:57.390Z,100681.97
2018-07-03T22:03:26.472Z,100683.68
2018-07-03T22:05:55.993Z,100681.80
2018-07-03T22:08:25.425Z,100681.97
2018-07-03T22:10:54.418Z,100679.27
2018-07-03T22:13:23.355Z,100676.07
2018-07-03T22:15:52.346Z,100680.13
2018-07-03T22:18:21.297Z,100671.53
2018-07-03T22:20:50.326Z,100668.46
2018-07-03T22:23:19.353Z,100678.28
2018-07-03T22:25:48.491Z,100670.80
2018-07-03T22:28:17.368Z,100674.72
2018-07-03T22:30:46.777Z,100675.22
2018-07-03T22:33:16.896Z,100677.06
2018-07-03T22:35:46.110Z,100677.06
2018-07-03T22:38:17.858Z,100676.56
2018-07-03T22:40:47.117Z,100673.86
2018-07-03T22:43:22.556Z,100668.95
2018-07-03T22:45:53.324Z,100673.50
2018-07-03T22:48:22.429Z,100669.98
2018-07-03T22:50:51.505Z,100676.20
2018-07-03T22:53:20.462Z,100663.66
2018-07-03T22:55:49.489Z,100671.83
2018-07-03T22:58:18.790Z,100676.37
2018-07-03T23:00:48.034Z,100670.11
2018-07-03T23:03:16.928Z,100671.95
2018-07-03T23:05:46.090Z,100672.48
2018-07-03T23:08:15.161Z,100673.83
2018-07-03T23:10:44.192Z,100668.06
2018-07-03T23:13:13.244Z,100670.27
2018-07-03T23:15:42.443Z,100676.17
2018-07-03T23:18:12.281Z,100673.11
2018-07-03T23:20:41.311Z,100671.42
2018-07-03T23:23:10.263Z,100673.11
2018-07-03T23:25:39.180Z,100674.62
2018-07-03T23:28:08.223Z,100675.11
2018-07-03T23:30:37.321Z,100674.75
2018-07-03T23:33:06.329Z,100678.31
2018-07-03T23:35:35.387Z,100675.28
2018-07-03T23:38:04.702Z,100682.85
2018-07-03T23:40:33.573Z,100678.97
2018-07-03T23:43:02.599Z,100677.61
2018-07-03T23:45:35.593Z,100682.52
2018-07-03T23:48:15.540Z,100680.48
2018-07-03T23:50:55.597Z,100677.78
2018-07-03T23:53:35.554Z,100685.88
2018-07-03T23:56:15.502Z,100676.72
2018-07-03T23:58:55.457Z,100677.58
